createdAt,value
2019-03-28T00:01:21.995Z,17.43
2019-03-28T00:06:16.085Z,16.53
2019-03-28T00:11:10.053Z,16.20
2019-03-28T00:16:04.151Z,16.53
2019-03-28T00:20:58.230Z,16.30
2019-03-28T00:25:52.235Z,16.83
2019-03-28T00:30:48.277Z,17.53
2019-03-28T00:35:42.240Z,16.97
2019-03-28T00:40:36.351Z,16.53
2019-03-28T00:45:31.213Z,17.03
2019-03-28T00:50:25.424Z,18.83
2019-03-28T00:55:19.520Z,17.40
2019-03-28T01:00:14.519Z,16.87
2019-03-28T01:05:08.765Z,17.10
2019-03-28T01:10:04.125Z,16.50
2019-03-28T01:14:58.182Z,17.50
2019-03-28T01:19:52.083Z,16.63
2019-03-28T01:24:46.058Z,16.40
2019-03-28T01:29:40.011Z,16.93
2019-03-28T01:34:33.952Z,16.50
2019-03-28T01:39:27.932Z,17.00
2019-03-28T01:44:22.030Z,18.23
2019-03-28T01:49:15.988Z,18.33
2019-03-28T01:54:10.022Z,17.63
2019-03-28T01:59:04.008Z,17.57
2019-03-28T02:03:57.968Z,18.67
2019-03-28T02:08:52.032Z,18.50
2019-03-28T02:13:46.102Z,17.60
2019-03-28T02:18:40.052Z,18.03
2019-03-28T02:23:34.039Z,17.63
2019-03-28T02:28:28.130Z,17.77
2019-03-28T02:33:22.129Z,17.87
2019-03-28T02:38:16.094Z,17.67
2019-03-28T02:43:10.310Z,18.17
2019-03-28T02:48:04.365Z,18.07
2019-03-28T02:52:58.330Z,18.93
2019-03-28T02:57:52.318Z,17.60
2019-03-28T03:02:46.260Z,18.77
2019-03-28T03:07:41.643Z,17.87
2019-03-28T03:12:35.878Z,18.43
2019-03-28T03:17:29.848Z,18.13
2019-03-28T03:22:23.835Z,18.87
2019-03-28T03:27:17.804Z,19.33
2019-03-28T03:32:11.767Z,18.53
2019-03-28T03:37:05.886Z,19.17
2019-03-28T03:41:59.829Z,18.73
2019-03-28T03:46:54.064Z,19.97
2019-03-28T03:51:48.059Z,20.30
2019-03-28T03:56:42.055Z,21.73
2019-03-28T04:01:36.039Z,20.20
2019-03-28T04:06:29.995Z,20.80
2019-03-28T04:11:23.973Z,21.07
2019-03-28T04:16:17.963Z,20.97
2019-03-28T04:21:12.057Z,22.00
2019-03-28T04:26:06.222Z,20.63
2019-03-28T04:31:00.446Z,22.67
2019-03-28T04:35:54.405Z,21.97
2019-03-28T04:40:48.463Z,23.43
2019-03-28T04:45:42.396Z,23.30
2019-03-28T04:50:36.374Z,22.23
2019-03-28T04:55:30.863Z,22.60
2019-03-28T05:00:24.823Z,23.20
2019-03-28T05:05:18.805Z,23.50
2019-03-28T05:10:12.956Z,22.90
2019-03-28T05:15:08.632Z,22.70
2019-03-28T05:20:04.415Z,23.47
2019-03-28T05:24:58.728Z,24.33
2019-03-28T05:29:52.883Z,23.63
2019-03-28T05:34:46.937Z,23.77
2019-03-28T05:39:41.175Z,24.30
2019-03-28T05:44:35.135Z,25.10
2019-03-28T05:49:29.301Z,25.97
2019-03-28T05:54:23.281Z,25.70
2019-03-28T05:59:17.445Z,25.30
2019-03-28T06:04:11.410Z,26.13
2019-03-28T06:09:05.993Z,25.93
2019-03-28T06:13:59.984Z,25.03
2019-03-28T06:18:53.957Z,25.83
2019-03-28T06:23:48.005Z,25.57
2019-03-28T06:28:41.975Z,25.83
2019-03-28T06:33:38.344Z,25.83
2019-03-28T06:38:31.806Z,26.00
2019-03-28T06:43:25.888Z,27.13
2019-03-28T06:48:19.858Z,26.50
2019-03-28T06:53:13.830Z,27.93
2019-03-28T06:58:07.829Z,27.50
2019-03-28T07:03:01.814Z,27.17
2019-03-28T07:07:55.918Z,27.37
2019-03-28T07:12:49.919Z,26.10
2019-03-28T07:17:43.894Z,26.87
2019-03-28T07:22:38.280Z,26.27
2019-03-28T07:27:32.950Z,27.00
2019-03-28T07:32:27.123Z,26.70
2019-03-28T07:37:21.117Z,27.43
2019-03-28T07:42:15.203Z,28.33
2019-03-28T07:47:09.251Z,27.67
2019-03-28T07:52:03.324Z,27.47
2019-03-28T07:56:57.583Z,27.77
2019-03-28T08:01:51.647Z,28.23
2019-03-28T08:06:49.934Z,28.00
2019-03-28T08:11:41.727Z,28.30
2019-03-28T08:16:35.810Z,28.37
2019-03-28T08:21:29.915Z,27.63
2019-03-28T08:26:23.891Z,28.43
2019-03-28T08:31:17.893Z,29.13
2019-03-28T08:36:13.144Z,29.43
2019-03-28T08:41:07.430Z,28.03
2019-03-28T08:46:01.853Z,28.97
2019-03-28T08:50:55.944Z,27.83
2019-03-28T08:55:50.019Z,28.87
2019-03-28T09:00:52.407Z,29.63
2019-03-28T09:05:40.083Z,29.43
2019-03-28T09:10:34.267Z,29.77
2019-03-28T09:15:28.234Z,30.13
2019-03-28T09:20:22.215Z,30.17
2019-03-28T09:25:16.194Z,30.23
2019-03-28T09:30:10.904Z,28.67
2019-03-28T09:35:05.527Z,29.60
2019-03-28T09:39:59.483Z,28.67
2019-03-28T09:44:53.456Z,29.43
2019-03-28T09:49:47.441Z,29.20
2019-03-28T09:54:41.520Z,30.10
2019-03-28T09:59:35.516Z,27.63
2019-03-28T10:04:29.573Z,26.70
2019-03-28T10:09:23.642Z,27.73
2019-03-28T10:14:17.598Z,27.43
2019-03-28T10:19:11.890Z,27.50
2019-03-28T10:24:06.484Z,26.23
2019-03-28T10:29:00.567Z,25.70
2019-03-28T10:33:55.036Z,24.20
2019-03-28T10:38:49.008Z,25.93
2019-03-28T10:43:42.976Z,26.67
2019-03-28T10:48:36.974Z,27.53
2019-03-28T10:53:30.949Z,22.50
2019-03-28T10:58:25.093Z,21.07
2019-03-28T11:03:19.094Z,21.80
2019-03-28T11:08:13.065Z,24.05
2019-03-28T11:13:09.610Z,21.10
2019-03-28T11:18:03.156Z,19.90
2019-03-28T11:22:57.123Z,19.30
2019-03-28T11:27:51.120Z,19.50
2019-03-28T11:32:45.199Z,15.65
2019-03-28T11:37:39.332Z,15.20
2019-03-28T11:42:33.308Z,11.40
2019-03-28T11:47:27.333Z,8.50
2019-03-28T11:52:21.415Z,12.80
2019-03-28T11:57:15.963Z,11.15
2019-03-28T12:02:19.554Z,12.23
2019-03-28T12:07:06.209Z,13.38
2019-03-28T12:12:00.200Z,14.10
2019-03-28T12:16:54.359Z,17.92
2019-03-28T12:21:48.553Z,15.18
2019-03-28T12:26:42.532Z,16.15
2019-03-28T12:31:36.605Z,17.07
2019-03-28T12:36:30.711Z,17.32
2019-03-28T12:41:24.705Z,18.20
2019-03-28T12:46:18.683Z,19.02
2019-03-28T12:51:12.764Z,18.12
2019-03-28T12:56:07.030Z,18.05
2019-03-28T13:01:01.020Z,18.40
2019-03-28T13:05:55.120Z,19.00
2019-03-28T13:10:49.200Z,18.98
2019-03-28T13:15:43.137Z,18.75
2019-03-28T13:20:37.239Z,21.42
2019-03-28T13:25:31.417Z,20.70
2019-03-28T13:30:25.656Z,19.85
2019-03-28T13:35:19.634Z,21.87
2019-03-28T13:40:13.710Z,21.30
2019-03-28T13:45:09.020Z,21.93
2019-03-28T13:50:08.150Z,19.95
2019-03-28T13:55:03.916Z,18.95
2019-03-28T13:59:58.097Z,20.35
2019-03-28T14:04:52.546Z,19.90
2019-03-28T14:09:46.620Z,19.15
2019-03-28T14:14:40.616Z,20.62
2019-03-28T14:19:34.642Z,21.00
2019-03-28T14:24:28.602Z,22.30
2019-03-28T14:29:22.565Z,23.17
2019-03-28T14:34:16.527Z,23.75
2019-03-28T14:39:10.544Z,24.05
2019-03-28T14:44:04.514Z,23.77
2019-03-28T14:48:58.575Z,23.33
2019-03-28T14:53:52.511Z,21.87
2019-03-28T14:58:48.244Z,23.07
2019-03-28T15:03:42.250Z,21.33
2019-03-28T15:08:36.236Z,20.60
2019-03-28T15:13:30.364Z,19.85
2019-03-28T15:18:24.372Z,19.15
2019-03-28T15:23:18.453Z,20.27
2019-03-28T15:28:12.448Z,20.32
2019-03-28T15:33:06.459Z,21.68
2019-03-28T15:38:00.549Z,20.15
2019-03-28T15:42:54.524Z,20.60
2019-03-28T15:47:51.837Z,22.70
2019-03-28T15:52:44.533Z,22.85
2019-03-28T15:57:40.796Z,21.97
2019-03-28T16:02:34.556Z,23.47
2019-03-28T16:07:29.578Z,23.15
2019-03-28T16:12:23.750Z,23.30
2019-03-28T16:17:17.861Z,22.05
2019-03-28T16:22:12.014Z,22.17
2019-03-28T16:27:06.138Z,22.07
2019-03-28T16:32:00.252Z,23.43
2019-03-28T16:36:54.253Z,23.57
2019-03-28T16:41:48.373Z,22.73
2019-03-28T16:46:42.434Z,22.20
2019-03-28T16:51:36.440Z,21.27
2019-03-28T16:56:30.565Z,22.17
2019-03-28T17:01:24.576Z,22.77
2019-03-28T17:06:19.179Z,23.93
2019-03-28T17:11:13.203Z,22.77
2019-03-28T17:16:07.317Z,24.60
2019-03-28T17:21:01.500Z,26.40
2019-03-28T17:25:55.727Z,24.93
2019-03-28T17:30:49.835Z,25.47
2019-03-28T17:35:43.930Z,25.37
2019-03-28T17:40:37.912Z,26.10
2019-03-28T17:45:31.899Z,24.93
2019-03-28T17:50:25.935Z,25.93
2019-03-28T17:55:20.002Z,25.90
2019-03-28T18:00:14.214Z,26.10
2019-03-28T18:05:10.847Z,26.37
2019-03-28T18:10:05.192Z,27.63
2019-03-28T18:14:59.328Z,28.67
2019-03-28T18:19:53.539Z,27.60
2019-03-28T18:24:47.552Z,28.73
2019-03-28T18:29:41.634Z,28.40
2019-03-28T18:34:35.744Z,29.30
2019-03-28T18:39:29.817Z,29.63
2019-03-28T18:44:23.833Z,28.00
2019-03-28T18:49:17.931Z,28.00
2019-03-28T18:54:12.019Z,27.13
2019-03-28T18:59:06.409Z,27.77
2019-03-28T19:04:00.417Z,28.30
2019-03-28T19:08:54.590Z,27.67
2019-03-28T19:13:48.584Z,27.83
2019-03-28T19:18:42.725Z,28.40
2019-03-28T19:23:37.253Z,28.73
2019-03-28T19:28:31.310Z,28.70
2019-03-28T19:33:25.310Z,29.40
2019-03-28T19:38:19.429Z,30.77
2019-03-28T19:43:20.392Z,29.37
2019-03-28T19:48:09.426Z,30.07
2019-03-28T19:53:03.602Z,28.50
2019-03-28T19:57:57.721Z,29.33
2019-03-28T20:02:51.763Z,31.67
2019-03-28T20:07:46.031Z,30.30
2019-03-28T20:12:40.103Z,29.73
2019-03-28T20:17:34.298Z,29.97
2019-03-28T20:22:28.298Z,31.30
2019-03-28T20:27:23.074Z,36.73
2019-03-28T20:32:17.448Z,52.30
2019-03-28T20:37:11.735Z,39.57
2019-03-28T20:42:06.162Z,37.07
2019-03-28T20:47:00.211Z,35.80
2019-03-28T20:51:54.310Z,33.00
2019-03-28T20:56:48.568Z,34.37
2019-03-28T21:01:42.744Z,34.20
2019-03-28T21:06:36.935Z,37.08
2019-03-28T21:11:30.902Z,34.50
2019-03-28T21:16:25.037Z,34.23
2019-03-28T21:21:19.064Z,32.40
2019-03-28T21:26:13.158Z,32.73
2019-03-28T21:31:07.281Z,34.63
2019-03-28T21:36:01.394Z,33.43
2019-03-28T21:40:55.567Z,33.17
2019-03-28T21:45:49.681Z,33.33
2019-03-28T21:50:43.674Z,33.60
2019-03-28T21:55:37.770Z,34.03
2019-03-28T22:00:32.080Z,33.67
2019-03-28T22:05:28.624Z,34.03
2019-03-28T22:10:22.107Z,35.77
2019-03-28T22:15:16.234Z,36.47
2019-03-28T22:20:10.350Z,34.50
2019-03-28T22:25:05.591Z,34.13
2019-03-28T22:29:59.721Z,35.50
2019-03-28T22:34:53.769Z,34.43
2019-03-28T22:39:49.803Z,37.13
2019-03-28T22:44:43.922Z,35.23
2019-03-28T22:49:37.908Z,37.60
2019-03-28T22:54:31.981Z,37.03
2019-03-28T22:59:26.918Z,35.43
2019-03-28T23:04:21.273Z,35.00
2019-03-28T23:09:15.370Z,35.50
2019-03-28T23:14:09.362Z,35.03
2019-03-28T23:19:03.352Z,35.87
2019-03-28T23:23:57.437Z,36.07
2019-03-28T23:28:51.499Z,37.53
2019-03-28T23:33:45.484Z,34.67
2019-03-28T23:38:39.434Z,35.67
2019-03-28T23:43:33.645Z,36.80
2019-03-28T23:48:27.684Z,35.97
2019-03-28T23:53:21.652Z,36.67
2019-03-28T23:58:15.733Z,36.93
